AAL4 KLAX-KJFK
Flight info
| Callsign | AAL4 |
|---|---|
| Flight time | N/A |
| Altitude | 39000 |
| Route | DOTSS2 CLEEE PKE J96 DRK KA30Q KA33U KK42A STL VHP KI63Q KLYNE Q29 JHW Q476 WLKES PUCKY1 |
| Aircraft | B772/H-SDE2E3FGHIJ5LORVWXY/LB1D1 |
Departure
| Time | 2026-05-08 02:20 |
|---|---|
| Airport | Los Angeles International Airport (KLAX) |
Arrival
| Time | N/A |
|---|---|
| Airport | John F. Kennedy International Airport (KJFK) |
| Time | Latitude | Longitude | Altitude | Speed | Heading |
|---|---|---|---|---|---|
| 2026-05-08 01:32 | 33.93959 | -118.40915 | 101 ft | 0 kts | 290° |
| 2026-05-08 02:04 | 33.93952 | -118.40892 | 103 ft | 4 kts | 287° |
| 2026-05-08 02:04 | 33.93945 | -118.40861 | 101 ft | 4 kts | 286° |
| 2026-05-08 02:04 | 33.93936 | -118.40831 | 99 ft | 4 kts | 300° |
| 2026-05-08 02:05 | 33.93923 | -118.40812 | 100 ft | 4 kts | 343° |
| 2026-05-08 02:05 | 33.93901 | -118.40809 | 100 ft | 4 kts | 14° |
| 2026-05-08 02:05 | 33.93883 | -118.40820 | 100 ft | 4 kts | 58° |
| 2026-05-08 02:05 | 33.93875 | -118.40847 | 101 ft | 4 kts | 82° |
| 2026-05-08 02:06 | 33.93872 | -118.40880 | 102 ft | 4 kts | 86° |
| 2026-05-08 02:06 | 33.93871 | -118.40894 | 102 ft | 0 kts | 84° |
| 2026-05-08 02:10 | 33.93872 | -118.40882 | 103 ft | 4 kts | 84° |
| 2026-05-08 02:11 | 33.93875 | -118.40846 | 102 ft | 4 kts | 83° |
| 2026-05-08 02:11 | 33.93879 | -118.40806 | 102 ft | 7 kts | 85° |
| 2026-05-08 02:11 | 33.93856 | -118.40749 | 104 ft | 8 kts | 139° |
| 2026-05-08 02:11 | 33.93820 | -118.40699 | 106 ft | 8 kts | 116° |
| 2026-05-08 02:12 | 33.93814 | -118.40633 | 107 ft | 8 kts | 86° |
| 2026-05-08 02:12 | 33.93821 | -118.40567 | 107 ft | 8 kts | 83° |
| 2026-05-08 02:12 | 33.93827 | -118.40501 | 107 ft | 8 kts | 83° |
| 2026-05-08 02:12 | 33.93834 | -118.40435 | 108 ft | 8 kts | 83° |
| 2026-05-08 02:13 | 33.93841 | -118.40368 | 108 ft | 8 kts | 83° |
| 2026-05-08 02:13 | 33.93847 | -118.40303 | 108 ft | 8 kts | 83° |
| 2026-05-08 02:13 | 33.93854 | -118.40237 | 108 ft | 8 kts | 83° |
| 2026-05-08 02:13 | 33.93861 | -118.40170 | 109 ft | 8 kts | 83° |
| 2026-05-08 02:14 | 33.93868 | -118.40104 | 108 ft | 8 kts | 82° |
| 2026-05-08 02:14 | 33.93875 | -118.40035 | 109 ft | 9 kts | 83° |
| 2026-05-08 02:14 | 33.93884 | -118.39956 | 107 ft | 10 kts | 83° |
| 2026-05-08 02:14 | 33.93893 | -118.39867 | 108 ft | 12 kts | 83° |
| 2026-05-08 02:15 | 33.93903 | -118.39764 | 108 ft | 13 kts | 84° |
| 2026-05-08 02:15 | 33.93913 | -118.39652 | 107 ft | 14 kts | 82° |
| 2026-05-08 02:15 | 33.93925 | -118.39540 | 107 ft | 14 kts | 82° |
| 2026-05-08 02:15 | 33.93937 | -118.39429 | 107 ft | 14 kts | 83° |
| 2026-05-08 02:16 | 33.93949 | -118.39316 | 105 ft | 14 kts | 83° |
| 2026-05-08 02:16 | 33.93960 | -118.39204 | 106 ft | 14 kts | 83° |
| 2026-05-08 02:16 | 33.93971 | -118.39091 | 106 ft | 14 kts | 83° |
| 2026-05-08 02:16 | 33.93982 | -118.38978 | 106 ft | 14 kts | 82° |
| 2026-05-08 02:17 | 33.93995 | -118.38866 | 106 ft | 14 kts | 83° |
| 2026-05-08 02:17 | 33.94006 | -118.38752 | 106 ft | 14 kts | 83° |
| 2026-05-08 02:17 | 33.94017 | -118.38640 | 107 ft | 14 kts | 83° |
| 2026-05-08 02:17 | 33.94029 | -118.38529 | 108 ft | 14 kts | 83° |
| 2026-05-08 02:18 | 33.94040 | -118.38416 | 108 ft | 14 kts | 83° |
| 2026-05-08 02:18 | 33.94048 | -118.38340 | 108 ft | 14 kts | 83° |
| 2026-05-08 02:18 | 33.94063 | -118.38191 | 108 ft | 14 kts | 83° |
| 2026-05-08 02:18 | 33.94074 | -118.38086 | 107 ft | 10 kts | 83° |
| 2026-05-08 02:19 | 33.94060 | -118.38013 | 108 ft | 9 kts | 136° |
| 2026-05-08 02:19 | 33.94001 | -118.38008 | 112 ft | 9 kts | 211° |
| 2026-05-08 02:19 | 33.93985 | -118.38042 | 111 ft | 6 kts | 254° |
| 2026-05-08 02:19 | 33.93976 | -118.38116 | 114 ft | 20 kts | 263° |
| 2026-05-08 02:20 | 33.93933 | -118.38527 | 113 ft | 86 kts | 263° |
| 2026-05-08 02:20 | 33.93830 | -118.39519 | 112 ft | 151 kts | 263° |
| 2026-05-08 02:20 | 33.93701 | -118.40897 | 642 ft | 169 kts | 262° |
| 2026-05-08 02:20 | 33.93554 | -118.42329 | 1450 ft | 178 kts | 262° |
| 2026-05-08 02:21 | 33.93388 | -118.43881 | 1856 ft | 197 kts | 263° |
| 2026-05-08 02:21 | 33.93184 | -118.45565 | 2306 ft | 207 kts | 257° |
| 2026-05-08 02:21 | 33.92522 | -118.47151 | 2694 ft | 220 kts | 233° |
| 2026-05-08 02:21 | 33.91525 | -118.48568 | 3212 ft | 226 kts | 232° |
| 2026-05-08 02:22 | 33.90468 | -118.50053 | 3642 ft | 243 kts | 231° |
| 2026-05-08 02:22 | 33.89307 | -118.51651 | 4062 ft | 259 kts | 232° |
| 2026-05-08 02:22 | 33.88120 | -118.53312 | 4773 ft | 264 kts | 232° |
| 2026-05-08 02:22 | 33.86883 | -118.54962 | 5403 ft | 267 kts | 224° |
| 2026-05-08 02:23 | 33.85185 | -118.55972 | 5857 ft | 283 kts | 190° |
| 2026-05-08 02:23 | 33.83250 | -118.55781 | 6563 ft | 285 kts | 168° |
| 2026-05-08 02:23 | 33.81296 | -118.55201 | 7063 ft | 292 kts | 169° |
| 2026-05-08 02:23 | 33.79302 | -118.54667 | 7735 ft | 294 kts | 168° |
| 2026-05-08 02:24 | 33.77300 | -118.54132 | 8453 ft | 295 kts | 168° |
| 2026-05-08 02:24 | 33.75281 | -118.53588 | 9112 ft | 299 kts | 168° |
| 2026-05-08 02:24 | 33.73241 | -118.53037 | 9786 ft | 302 kts | 167° |
| 2026-05-08 02:24 | 33.71218 | -118.52395 | 10284 ft | 302 kts | 156° |
| 2026-05-08 02:25 | 33.69510 | -118.50905 | 10442 ft | 319 kts | 126° |
| 2026-05-08 02:25 | 33.68524 | -118.48426 | 10604 ft | 333 kts | 105° |
| 2026-05-08 02:25 | 33.67842 | -118.45726 | 10731 ft | 354 kts | 107° |
| 2026-05-08 02:25 | 33.67000 | -118.42820 | 11139 ft | 371 kts | 108° |
| 2026-05-08 02:26 | 33.66127 | -118.39917 | 11898 ft | 377 kts | 108° |
| 2026-05-08 02:26 | 33.65237 | -118.36940 | 12945 ft | 377 kts | 108° |
| 2026-05-08 02:26 | 33.64429 | -118.33974 | 13839 ft | 371 kts | 102° |
| 2026-05-08 02:26 | 33.64232 | -118.30873 | 14251 ft | 376 kts | 88° |
| 2026-05-08 02:27 | 33.64344 | -118.27680 | 14865 ft | 386 kts | 87° |
| 2026-05-08 02:27 | 33.64413 | -118.24435 | 15798 ft | 389 kts | 88° |
| 2026-05-08 02:27 | 33.64447 | -118.21177 | 16678 ft | 393 kts | 89° |
| 2026-05-08 02:27 | 33.64463 | -118.17854 | 17469 ft | 401 kts | 89° |
| 2026-05-08 02:28 | 33.64469 | -118.14523 | 18309 ft | 407 kts | 89° |
| 2026-05-08 02:28 | 33.64468 | -118.11097 | 19100 ft | 411 kts | 89° |
| 2026-05-08 02:28 | 33.64465 | -118.07649 | 19951 ft | 415 kts | 89° |
| 2026-05-08 02:28 | 33.64461 | -118.04168 | 20763 ft | 419 kts | 89° |
| 2026-05-08 02:29 | 33.64457 | -118.00656 | 21545 ft | 424 kts | 89° |
| 2026-05-08 02:29 | 33.64451 | -117.97096 | 22309 ft | 429 kts | 89° |
| 2026-05-08 02:29 | 33.64445 | -117.93498 | 23063 ft | 433 kts | 88° |
| 2026-05-08 02:29 | 33.64438 | -117.89907 | 23762 ft | 438 kts | 88° |
| 2026-05-08 02:30 | 33.64430 | -117.86235 | 24368 ft | 442 kts | 88° |
| 2026-05-08 02:30 | 33.64420 | -117.82519 | 24966 ft | 445 kts | 88° |
| 2026-05-08 02:30 | 33.64459 | -117.78804 | 25551 ft | 444 kts | 84° |
| 2026-05-08 02:30 | 33.64955 | -117.75126 | 25956 ft | 449 kts | 75° |
| 2026-05-08 02:31 | 33.65758 | -117.71481 | 26458 ft | 452 kts | 73° |
| 2026-05-08 02:31 | 33.66569 | -117.67818 | 27004 ft | 455 kts | 74° |
| 2026-05-08 02:31 | 33.67348 | -117.64124 | 27553 ft | 458 kts | 75° |
| 2026-05-08 02:31 | 33.68097 | -117.60397 | 28046 ft | 461 kts | 75° |
| 2026-05-08 02:32 | 33.68828 | -117.56646 | 28495 ft | 464 kts | 75° |
| 2026-05-08 02:32 | 33.69545 | -117.52897 | 28924 ft | 467 kts | 75° |
| 2026-05-08 02:32 | 33.70267 | -117.49084 | 29358 ft | 470 kts | 75° |
| 2026-05-08 02:32 | 33.70996 | -117.45239 | 29801 ft | 472 kts | 75° |
| 2026-05-08 02:33 | 33.71730 | -117.41372 | 30171 ft | 475 kts | 75° |
| 2026-05-08 02:33 | 33.72465 | -117.37502 | 30489 ft | 477 kts | 75° |
| 2026-05-08 02:33 | 33.73204 | -117.33601 | 30770 ft | 479 kts | 75° |
| 2026-05-08 02:33 | 33.73945 | -117.29688 | 31037 ft | 482 kts | 75° |
| 2026-05-08 02:34 | 33.74688 | -117.25756 | 31309 ft | 483 kts | 75° |
| 2026-05-08 02:34 | 33.75304 | -117.21803 | 31627 ft | 482 kts | 83° |
| 2026-05-08 02:34 | 33.75328 | -117.17741 | 31869 ft | 487 kts | 91° |
| 2026-05-08 02:34 | 33.75074 | -117.13739 | 32217 ft | 486 kts | 92° |
| 2026-05-08 02:35 | 33.74875 | -117.09680 | 32630 ft | 484 kts | 90° |
| 2026-05-08 02:35 | 33.74758 | -117.05658 | 33059 ft | 481 kts | 89° |
| 2026-05-08 02:35 | 33.74682 | -117.01634 | 33445 ft | 481 kts | 89° |
| 2026-05-08 02:35 | 33.74608 | -116.97618 | 33778 ft | 481 kts | 89° |
| 2026-05-08 02:36 | 33.74526 | -116.93597 | 34134 ft | 480 kts | 89° |
| 2026-05-08 02:36 | 33.74436 | -116.89588 | 34444 ft | 480 kts | 89° |
| 2026-05-08 02:36 | 33.74343 | -116.85571 | 34748 ft | 480 kts | 89° |
| 2026-05-08 02:36 | 33.74249 | -116.81558 | 35034 ft | 480 kts | 89° |
| 2026-05-08 02:37 | 33.74155 | -116.77546 | 35342 ft | 479 kts | 89° |
| 2026-05-08 02:37 | 33.74059 | -116.73549 | 35601 ft | 478 kts | 89° |
| 2026-05-08 02:37 | 33.73963 | -116.69606 | 35921 ft | 477 kts | 89° |
| 2026-05-08 02:37 | 33.73866 | -116.65615 | 36213 ft | 476 kts | 89° |
| 2026-05-08 02:38 | 33.73769 | -116.61633 | 36524 ft | 476 kts | 89° |
| 2026-05-08 02:38 | 33.73668 | -116.57642 | 36790 ft | 477 kts | 89° |
| 2026-05-08 02:38 | 33.73566 | -116.53654 | 37101 ft | 476 kts | 89° |
| 2026-05-08 02:38 | 33.73465 | -116.49737 | 37426 ft | 475 kts | 89° |
| 2026-05-08 02:39 | 33.73362 | -116.45765 | 37737 ft | 475 kts | 89° |
| 2026-05-08 02:39 | 33.73257 | -116.41806 | 38041 ft | 474 kts | 89° |
| 2026-05-08 02:39 | 33.73152 | -116.37844 | 38322 ft | 474 kts | 89° |
| 2026-05-08 02:39 | 33.73047 | -116.33890 | 38573 ft | 474 kts | 89° |
| 2026-05-08 02:40 | 33.72940 | -116.29934 | 38704 ft | 475 kts | 89° |
| 2026-05-08 02:40 | 33.72831 | -116.25955 | 38757 ft | 478 kts | 89° |
| 2026-05-08 02:40 | 33.72607 | -116.17969 | 38819 ft | 477 kts | 89° |
| 2026-05-08 02:41 | 33.72379 | -116.10024 | 38821 ft | 473 kts | 89° |
| 2026-05-08 02:41 | 33.72483 | -116.06143 | 38817 ft | 467 kts | 77° |
| 2026-05-08 02:41 | 33.73366 | -116.02436 | 38845 ft | 458 kts | 67° |
| 2026-05-08 02:42 | 33.75567 | -115.95205 | 38842 ft | 462 kts | 68° |
| 2026-05-08 02:42 | 33.77699 | -115.87878 | 38852 ft | 466 kts | 68° |
| 2026-05-08 02:43 | 33.79770 | -115.80479 | 38855 ft | 469 kts | 69° |
| 2026-05-08 02:43 | 33.81812 | -115.73070 | 38860 ft | 470 kts | 69° |
| 2026-05-08 02:44 | 33.83867 | -115.65590 | 38858 ft | 470 kts | 69° |
| 2026-05-08 02:44 | 33.85918 | -115.58121 | 38853 ft | 469 kts | 69° |
| 2026-05-08 02:45 | 33.87949 | -115.50707 | 38854 ft | 468 kts | 69° |
| 2026-05-08 02:45 | 33.89982 | -115.43270 | 38851 ft | 467 kts | 69° |
| 2026-05-08 02:46 | 33.92025 | -115.35785 | 38854 ft | 467 kts | 69° |
| 2026-05-08 02:46 | 33.94034 | -115.28394 | 38851 ft | 468 kts | 69° |
| 2026-05-08 02:47 | 33.96057 | -115.20933 | 38839 ft | 468 kts | 69° |
| 2026-05-08 02:47 | 33.98075 | -115.13472 | 38837 ft | 468 kts | 69° |
| 2026-05-08 02:48 | 34.00091 | -115.05997 | 38840 ft | 469 kts | 69° |
| 2026-05-08 02:48 | 34.02104 | -114.98513 | 38826 ft | 468 kts | 69° |
| 2026-05-08 02:49 | 34.04092 | -114.91100 | 38829 ft | 467 kts | 69° |
| 2026-05-08 02:49 | 34.06086 | -114.83646 | 38824 ft | 465 kts | 69° |
| 2026-05-08 02:50 | 34.08060 | -114.76244 | 38820 ft | 461 kts | 69° |
| 2026-05-08 02:50 | 34.10005 | -114.68939 | 38821 ft | 458 kts | 69° |
| 2026-05-08 02:51 | 34.12016 | -114.61667 | 38810 ft | 455 kts | 68° |
| 2026-05-08 02:51 | 34.14084 | -114.54452 | 38807 ft | 454 kts | 68° |
| 2026-05-08 02:52 | 34.16139 | -114.47233 | 38814 ft | 454 kts | 68° |
| 2026-05-08 02:52 | 34.18181 | -114.40000 | 38808 ft | 456 kts | 68° |
| 2026-05-08 02:53 | 34.20220 | -114.32742 | 38809 ft | 457 kts | 68° |
| 2026-05-08 02:53 | 34.22256 | -114.25478 | 38808 ft | 458 kts | 68° |
| 2026-05-08 02:54 | 34.24298 | -114.18174 | 38810 ft | 459 kts | 68° |
| 2026-05-08 02:54 | 34.26346 | -114.10835 | 38820 ft | 460 kts | 68° |
| 2026-05-08 02:55 | 34.29398 | -113.99843 | 38814 ft | 461 kts | 69° |
| 2026-05-08 02:56 | 34.31434 | -113.92479 | 38824 ft | 460 kts | 68° |
| 2026-05-08 02:56 | 34.33460 | -113.85133 | 38831 ft | 460 kts | 69° |
| 2026-05-08 02:57 | 34.35475 | -113.77805 | 38826 ft | 458 kts | 69° |
| 2026-05-08 02:57 | 34.37465 | -113.70549 | 38831 ft | 456 kts | 69° |
| 2026-05-08 02:58 | 34.39460 | -113.63264 | 38836 ft | 454 kts | 69° |
| 2026-05-08 02:58 | 34.41440 | -113.56006 | 38835 ft | 453 kts | 69° |
| 2026-05-08 02:59 | 34.43412 | -113.48758 | 38837 ft | 452 kts | 69° |
| 2026-05-08 02:59 | 34.45374 | -113.41531 | 38850 ft | 451 kts | 69° |
| 2026-05-08 03:00 | 34.47322 | -113.34343 | 38857 ft | 452 kts | 69° |
| 2026-05-08 03:00 | 34.49280 | -113.27092 | 38867 ft | 452 kts | 69° |
| 2026-05-08 03:01 | 34.51239 | -113.19818 | 38871 ft | 453 kts | 69° |
| 2026-05-08 03:01 | 34.53193 | -113.12548 | 38880 ft | 454 kts | 69° |
| 2026-05-08 03:02 | 34.55137 | -113.05287 | 38898 ft | 455 kts | 69° |
| 2026-05-08 03:02 | 34.57097 | -112.97953 | 38907 ft | 457 kts | 70° |
| 2026-05-08 03:03 | 34.59059 | -112.90585 | 38924 ft | 459 kts | 70° |
| 2026-05-08 03:03 | 34.61017 | -112.83220 | 38926 ft | 461 kts | 70° |
| 2026-05-08 03:04 | 34.62987 | -112.75784 | 38972 ft | 462 kts | 70° |
| 2026-05-08 03:04 | 34.64942 | -112.68386 | 39018 ft | 463 kts | 70° |
| 2026-05-08 03:05 | 34.66906 | -112.60932 | 39050 ft | 464 kts | 70° |
| 2026-05-08 03:05 | 34.68872 | -112.53454 | 39088 ft | 464 kts | 70° |
| 2026-05-08 03:06 | 34.70638 | -112.45954 | 39090 ft | 466 kts | 77° |
| 2026-05-08 03:06 | 34.71470 | -112.39459 | 39100 ft | 466 kts | 79° |
| 2026-05-08 03:07 | 34.72432 | -112.31673 | 39082 ft | 465 kts | 78° |
| 2026-05-08 03:07 | 34.73415 | -112.23899 | 39047 ft | 464 kts | 78° |
| 2026-05-08 03:08 | 34.74398 | -112.16195 | 39010 ft | 463 kts | 78° |
| 2026-05-08 03:08 | 34.75386 | -112.08447 | 38992 ft | 463 kts | 78° |
| 2026-05-08 03:09 | 34.76368 | -112.00708 | 39020 ft | 462 kts | 78° |
| 2026-05-08 03:09 | 34.77341 | -111.92977 | 39056 ft | 461 kts | 78° |
| 2026-05-08 03:10 | 34.78300 | -111.85323 | 39077 ft | 460 kts | 78° |
| 2026-05-08 03:10 | 34.79259 | -111.77632 | 39067 ft | 458 kts | 78° |
| 2026-05-08 03:11 | 34.80209 | -111.69974 | 39083 ft | 457 kts | 78° |
| 2026-05-08 03:11 | 34.81154 | -111.62318 | 39058 ft | 457 kts | 78° |
| 2026-05-08 03:12 | 34.82088 | -111.54703 | 39044 ft | 458 kts | 78° |
| 2026-05-08 03:12 | 34.83027 | -111.47013 | 39031 ft | 459 kts | 78° |
| 2026-05-08 03:13 | 34.83962 | -111.39308 | 39021 ft | 460 kts | 78° |
| 2026-05-08 03:13 | 34.84888 | -111.31643 | 39009 ft | 461 kts | 78° |
| 2026-05-08 03:14 | 34.85817 | -111.23904 | 39013 ft | 461 kts | 78° |
| 2026-05-08 03:14 | 34.86742 | -111.16160 | 39007 ft | 461 kts | 78° |
| 2026-05-08 03:15 | 34.87660 | -111.08425 | 39010 ft | 461 kts | 78° |
| 2026-05-08 03:15 | 34.88573 | -111.00691 | 39033 ft | 461 kts | 79° |
| 2026-05-08 03:16 | 34.89477 | -110.92996 | 39057 ft | 461 kts | 79° |
| 2026-05-08 03:16 | 34.90381 | -110.85258 | 39076 ft | 461 kts | 79° |
| 2026-05-08 03:17 | 34.91278 | -110.77530 | 39092 ft | 461 kts | 79° |
| 2026-05-08 03:17 | 34.92174 | -110.69774 | 39092 ft | 461 kts | 79° |
| 2026-05-08 03:18 | 34.93061 | -110.62038 | 39087 ft | 461 kts | 79° |
| 2026-05-08 03:18 | 34.93946 | -110.54291 | 39067 ft | 461 kts | 79° |
| 2026-05-08 03:19 | 34.94826 | -110.46541 | 39036 ft | 462 kts | 79° |
| 2026-05-08 03:19 | 34.95695 | -110.38831 | 39012 ft | 462 kts | 79° |
| 2026-05-08 03:20 | 34.96566 | -110.31066 | 38977 ft | 462 kts | 79° |
| 2026-05-08 03:20 | 34.97433 | -110.23296 | 38968 ft | 463 kts | 79° |
| 2026-05-08 03:21 | 34.98296 | -110.15513 | 38963 ft | 463 kts | 79° |
| 2026-05-08 03:21 | 34.99155 | -110.07718 | 38956 ft | 463 kts | 79° |
| 2026-05-08 03:22 | 35.00004 | -109.99968 | 38955 ft | 464 kts | 79° |
| 2026-05-08 03:22 | 35.01016 | -109.92192 | 38955 ft | 463 kts | 77° |
| 2026-05-08 03:23 | 35.02158 | -109.84442 | 38958 ft | 464 kts | 77° |
| 2026-05-08 03:23 | 35.03286 | -109.76675 | 38953 ft | 464 kts | 77° |
| 2026-05-08 03:24 | 35.04377 | -109.68958 | 38957 ft | 465 kts | 77° |
| 2026-05-08 03:24 | 35.05461 | -109.61182 | 38956 ft | 465 kts | 78° |
| 2026-05-08 03:25 | 35.06538 | -109.53395 | 38960 ft | 465 kts | 78° |
| 2026-05-08 03:25 | 35.07611 | -109.45605 | 38960 ft | 466 kts | 78° |
| 2026-05-08 03:26 | 35.08683 | -109.37790 | 38960 ft | 466 kts | 78° |
| 2026-05-08 03:26 | 35.09751 | -109.29969 | 39006 ft | 467 kts | 78° |
| 2026-05-08 03:27 | 35.10809 | -109.22188 | 39051 ft | 467 kts | 78° |
| 2026-05-08 03:27 | 35.11867 | -109.14354 | 39095 ft | 467 kts | 78° |
| 2026-05-08 03:28 | 35.12923 | -109.06503 | 39140 ft | 468 kts | 78° |
| 2026-05-08 03:28 | 35.13975 | -108.98648 | 39166 ft | 468 kts | 78° |
| 2026-05-08 03:29 | 35.15023 | -108.90774 | 39163 ft | 469 kts | 78° |
| 2026-05-08 03:29 | 35.16060 | -108.82951 | 39131 ft | 470 kts | 78° |
| 2026-05-08 03:30 | 35.17620 | -108.71097 | 39063 ft | 471 kts | 78° |
| 2026-05-08 03:31 | 35.19686 | -108.55256 | 38961 ft | 472 kts | 79° |
| 2026-05-08 03:32 | 35.21217 | -108.43404 | 38949 ft | 472 kts | 79° |
| 2026-05-08 03:32 | 35.22236 | -108.35467 | 38954 ft | 473 kts | 79° |
| 2026-05-08 03:33 | 35.23254 | -108.27499 | 39001 ft | 473 kts | 79° |
| 2026-05-08 03:33 | 35.24265 | -108.19531 | 39048 ft | 474 kts | 79° |
| 2026-05-08 03:34 | 35.25268 | -108.11592 | 39100 ft | 475 kts | 79° |
| 2026-05-08 03:34 | 35.26274 | -108.03589 | 39136 ft | 475 kts | 79° |
| 2026-05-08 03:35 | 35.27275 | -107.95576 | 39165 ft | 476 kts | 79° |
| 2026-05-08 03:35 | 35.28271 | -107.87561 | 39159 ft | 476 kts | 79° |
| 2026-05-08 03:36 | 35.29263 | -107.79534 | 39136 ft | 477 kts | 80° |
| 2026-05-08 03:36 | 35.30249 | -107.71501 | 39092 ft | 477 kts | 80° |
| 2026-05-08 03:37 | 35.31227 | -107.63499 | 39054 ft | 478 kts | 80° |
| 2026-05-08 03:37 | 35.32206 | -107.55440 | 38998 ft | 478 kts | 80° |
| 2026-05-08 03:38 | 35.33181 | -107.47369 | 38971 ft | 478 kts | 80° |
| 2026-05-08 03:38 | 35.34150 | -107.39302 | 38971 ft | 479 kts | 80° |
| 2026-05-08 03:39 | 35.35110 | -107.31265 | 38966 ft | 480 kts | 80° |
| 2026-05-08 03:39 | 35.36073 | -107.23148 | 38965 ft | 482 kts | 80° |
| 2026-05-08 03:40 | 35.37033 | -107.15013 | 38955 ft | 483 kts | 81° |
| 2026-05-08 03:40 | 35.37989 | -107.06868 | 38981 ft | 484 kts | 81° |
| 2026-05-08 03:41 | 35.38937 | -106.98744 | 38994 ft | 484 kts | 81° |
| 2026-05-08 03:41 | 35.39645 | -106.92635 | 39008 ft | 485 kts | 81° |
| 2026-05-08 03:42 | 35.40582 | -106.84509 | 39009 ft | 486 kts | 81° |
| 2026-05-08 03:42 | 35.41524 | -106.76295 | 39000 ft | 486 kts | 81° |
| 2026-05-08 03:43 | 35.42461 | -106.68082 | 38981 ft | 487 kts | 81° |
| 2026-05-08 03:43 | 35.43389 | -106.59896 | 38952 ft | 487 kts | 81° |
| 2026-05-08 03:44 | 35.44316 | -106.51657 | 38930 ft | 488 kts | 82° |
| 2026-05-08 03:44 | 35.45240 | -106.43402 | 38946 ft | 488 kts | 82° |
| 2026-05-08 03:45 | 35.46157 | -106.35151 | 38984 ft | 488 kts | 82° |
| 2026-05-08 03:45 | 35.47070 | -106.26883 | 39020 ft | 489 kts | 82° |
| 2026-05-08 03:46 | 35.47979 | -106.18607 | 39052 ft | 490 kts | 82° |
| 2026-05-08 03:46 | 35.48880 | -106.10352 | 39070 ft | 491 kts | 82° |
| 2026-05-08 03:47 | 35.49808 | -106.02014 | 39071 ft | 491 kts | 79° |
| 2026-05-08 03:47 | 35.51585 | -105.93926 | 39060 ft | 492 kts | 70° |
| 2026-05-08 03:48 | 35.53851 | -105.86043 | 39037 ft | 493 kts | 70° |
| 2026-05-08 03:48 | 35.56110 | -105.78074 | 39012 ft | 495 kts | 70° |
| 2026-05-08 03:49 | 35.58344 | -105.70060 | 38979 ft | 496 kts | 70° |
| 2026-05-08 03:49 | 35.60565 | -105.62024 | 38962 ft | 497 kts | 70° |
| 2026-05-08 03:50 | 35.62773 | -105.54008 | 38978 ft | 498 kts | 71° |
| 2026-05-08 03:50 | 35.64991 | -105.45938 | 39012 ft | 498 kts | 71° |
| 2026-05-08 03:51 | 35.67207 | -105.37857 | 39052 ft | 498 kts | 71° |
| 2026-05-08 03:51 | 35.69420 | -105.29760 | 39087 ft | 499 kts | 71° |
| 2026-05-08 03:52 | 35.71612 | -105.21715 | 39111 ft | 499 kts | 71° |
| 2026-05-08 03:52 | 35.73818 | -105.13597 | 39109 ft | 500 kts | 71° |
| 2026-05-08 03:53 | 35.76019 | -105.05470 | 39092 ft | 500 kts | 71° |
| 2026-05-08 03:53 | 35.77845 | -104.98712 | 39054 ft | 501 kts | 71° |
| 2026-05-08 03:54 | 35.80042 | -104.90556 | 39025 ft | 501 kts | 71° |
| 2026-05-08 03:54 | 35.82233 | -104.82396 | 38977 ft | 501 kts | 71° |
| 2026-05-08 03:55 | 35.84417 | -104.74239 | 38954 ft | 502 kts | 71° |
| 2026-05-08 03:55 | 35.86587 | -104.66106 | 38949 ft | 502 kts | 71° |
| 2026-05-08 03:56 | 35.88765 | -104.57920 | 38948 ft | 502 kts | 71° |
| 2026-05-08 03:56 | 35.90939 | -104.49726 | 38946 ft | 503 kts | 71° |
| 2026-05-08 03:57 | 35.93115 | -104.41496 | 38959 ft | 504 kts | 71° |
| 2026-05-08 03:57 | 35.95285 | -104.33263 | 38951 ft | 505 kts | 71° |
| 2026-05-08 03:58 | 35.97442 | -104.25055 | 38956 ft | 506 kts | 71° |
| 2026-05-08 03:58 | 35.99608 | -104.16786 | 38950 ft | 507 kts | 71° |
| 2026-05-08 03:59 | 36.01777 | -104.08479 | 38953 ft | 508 kts | 71° |
| 2026-05-08 03:59 | 36.03942 | -104.00160 | 38954 ft | 509 kts | 71° |
| 2026-05-08 04:00 | 36.06105 | -103.91822 | 38960 ft | 509 kts | 72° |
| 2026-05-08 04:00 | 36.08264 | -103.83476 | 38961 ft | 510 kts | 72° |
| 2026-05-08 04:01 | 36.10421 | -103.75108 | 38965 ft | 511 kts | 72° |
| 2026-05-08 04:01 | 36.12575 | -103.66724 | 38965 ft | 511 kts | 72° |
| 2026-05-08 04:02 | 36.14715 | -103.58365 | 38966 ft | 512 kts | 72° |
| 2026-05-08 04:02 | 36.16859 | -103.49966 | 38971 ft | 513 kts | 72° |
| 2026-05-08 04:03 | 36.19012 | -103.41505 | 38977 ft | 515 kts | 72° |
| 2026-05-08 04:03 | 36.22219 | -103.28847 | 39002 ft | 515 kts | 72° |
| 2026-05-08 04:04 | 36.24360 | -103.20363 | 39017 ft | 516 kts | 72° |
| 2026-05-08 04:04 | 36.26495 | -103.11872 | 39027 ft | 516 kts | 72° |
| 2026-05-08 04:05 | 36.28628 | -103.03362 | 39026 ft | 517 kts | 72° |
| 2026-05-08 04:05 | 36.30757 | -102.94837 | 39015 ft | 518 kts | 72° |
| 2026-05-08 04:06 | 36.32874 | -102.86335 | 38998 ft | 519 kts | 72° |
| 2026-05-08 04:06 | 36.35001 | -102.77761 | 38984 ft | 520 kts | 72° |
| 2026-05-08 04:07 | 36.37129 | -102.69153 | 38966 ft | 521 kts | 72° |
| 2026-05-08 04:07 | 36.39249 | -102.60549 | 38957 ft | 522 kts | 72° |
| 2026-05-08 04:08 | 36.41371 | -102.51906 | 38948 ft | 523 kts | 73° |
| 2026-05-08 04:08 | 36.43475 | -102.43306 | 38948 ft | 524 kts | 73° |
| 2026-05-08 04:09 | 36.45594 | -102.34618 | 38944 ft | 525 kts | 73° |
| 2026-05-08 04:09 | 36.47705 | -102.25927 | 38944 ft | 525 kts | 73° |
| 2026-05-08 04:10 | 36.49815 | -102.17214 | 38938 ft | 526 kts | 73° |
| 2026-05-08 04:10 | 36.51908 | -102.08538 | 38936 ft | 527 kts | 73° |
| 2026-05-08 04:11 | 36.54012 | -101.99787 | 38934 ft | 528 kts | 73° |
| 2026-05-08 04:11 | 36.56114 | -101.91011 | 38934 ft | 529 kts | 73° |
| 2026-05-08 04:12 | 36.58213 | -101.82216 | 38943 ft | 530 kts | 73° |
| 2026-05-08 04:12 | 36.60294 | -101.73466 | 38964 ft | 531 kts | 73° |
| 2026-05-08 04:13 | 36.62389 | -101.64624 | 38972 ft | 532 kts | 73° |
| 2026-05-08 04:13 | 36.64479 | -101.55773 | 38982 ft | 533 kts | 73° |
| 2026-05-08 04:14 | 36.66564 | -101.46908 | 38982 ft | 533 kts | 73° |
| 2026-05-08 04:14 | 36.68646 | -101.38023 | 38980 ft | 534 kts | 73° |
| 2026-05-08 04:15 | 36.70711 | -101.29178 | 38966 ft | 535 kts | 73° |
| 2026-05-08 04:15 | 36.72789 | -101.20242 | 38964 ft | 536 kts | 73° |
| 2026-05-08 04:16 | 36.74861 | -101.11302 | 38949 ft | 537 kts | 73° |
| 2026-05-08 04:16 | 36.76927 | -101.02352 | 38964 ft | 538 kts | 74° |
| 2026-05-08 04:17 | 36.78994 | -100.93367 | 38968 ft | 538 kts | 74° |
| 2026-05-08 04:17 | 36.81041 | -100.84429 | 38972 ft | 539 kts | 74° |
| 2026-05-08 04:18 | 36.83098 | -100.75416 | 38969 ft | 540 kts | 74° |
| 2026-05-08 04:18 | 36.85153 | -100.66378 | 38967 ft | 541 kts | 74° |
| 2026-05-08 04:19 | 36.87206 | -100.57316 | 38955 ft | 542 kts | 74° |
| 2026-05-08 04:19 | 36.89252 | -100.48242 | 38957 ft | 542 kts | 74° |
| 2026-05-08 04:20 | 36.91293 | -100.39160 | 38937 ft | 543 kts | 74° |
| 2026-05-08 04:20 | 36.93318 | -100.30114 | 38955 ft | 544 kts | 74° |
| 2026-05-08 04:21 | 36.95352 | -100.20991 | 38936 ft | 545 kts | 74° |
| 2026-05-08 04:21 | 36.97385 | -100.11837 | 38935 ft | 546 kts | 75° |
| 2026-05-08 04:22 | 36.99400 | -100.02726 | 38934 ft | 547 kts | 75° |
| 2026-05-08 04:22 | 37.01484 | -99.93561 | 38934 ft | 548 kts | 73° |
| 2026-05-08 04:23 | 37.03702 | -99.84424 | 38930 ft | 549 kts | 73° |
| 2026-05-08 04:23 | 37.05932 | -99.75277 | 38928 ft | 550 kts | 73° |
| 2026-05-08 04:24 | 37.08138 | -99.66089 | 38928 ft | 550 kts | 73° |
| 2026-05-08 04:24 | 37.10310 | -99.56949 | 38930 ft | 551 kts | 73° |
| 2026-05-08 04:25 | 37.12489 | -99.47728 | 38923 ft | 552 kts | 73° |
| 2026-05-08 04:25 | 37.14669 | -99.38476 | 38927 ft | 552 kts | 73° |
| 2026-05-08 04:26 | 37.16840 | -99.29232 | 38919 ft | 553 kts | 73° |
| 2026-05-08 04:26 | 37.19011 | -99.19958 | 38925 ft | 554 kts | 73° |
| 2026-05-08 04:27 | 37.21164 | -99.10721 | 38920 ft | 555 kts | 73° |
| 2026-05-08 04:27 | 37.23325 | -99.01410 | 38922 ft | 556 kts | 74° |
| 2026-05-08 04:28 | 37.25485 | -98.92072 | 38920 ft | 557 kts | 74° |
| 2026-05-08 04:28 | 37.27629 | -98.82763 | 38922 ft | 557 kts | 74° |
| 2026-05-08 04:29 | 37.29778 | -98.73396 | 38921 ft | 558 kts | 74° |
| 2026-05-08 04:29 | 37.31921 | -98.64017 | 38926 ft | 558 kts | 74° |
| 2026-05-08 04:30 | 37.34057 | -98.54631 | 38915 ft | 559 kts | 74° |
| 2026-05-08 04:30 | 37.36176 | -98.45279 | 38922 ft | 559 kts | 74° |
| 2026-05-08 04:31 | 37.38304 | -98.35858 | 38920 ft | 560 kts | 74° |
| 2026-05-08 04:31 | 37.40426 | -98.26415 | 38928 ft | 561 kts | 74° |
| 2026-05-08 04:32 | 37.42546 | -98.16947 | 38930 ft | 562 kts | 74° |
| 2026-05-08 04:32 | 37.44649 | -98.07516 | 38931 ft | 563 kts | 74° |
| 2026-05-08 04:33 | 37.46759 | -97.98014 | 38925 ft | 564 kts | 74° |
| 2026-05-08 04:33 | 37.48865 | -97.88488 | 38924 ft | 564 kts | 74° |
| 2026-05-08 04:34 | 37.50962 | -97.78964 | 38922 ft | 565 kts | 75° |
| 2026-05-08 04:34 | 37.53049 | -97.69449 | 38932 ft | 566 kts | 75° |
| 2026-05-08 04:35 | 37.55137 | -97.59885 | 38940 ft | 566 kts | 75° |
| 2026-05-08 04:35 | 37.57223 | -97.50291 | 38946 ft | 567 kts | 75° |
| 2026-05-08 04:36 | 37.59301 | -97.40693 | 38945 ft | 568 kts | 75° |
| 2026-05-08 04:36 | 37.61364 | -97.31119 | 38938 ft | 569 kts | 75° |
| 2026-05-08 04:37 | 37.63433 | -97.21482 | 38939 ft | 570 kts | 75° |
| 2026-05-08 04:37 | 37.65499 | -97.11810 | 38955 ft | 571 kts | 75° |
| 2026-05-08 04:38 | 37.67562 | -97.02115 | 38954 ft | 572 kts | 75° |
| 2026-05-08 04:38 | 37.69622 | -96.92391 | 38956 ft | 573 kts | 75° |
| 2026-05-08 04:39 | 37.71662 | -96.82716 | 38957 ft | 573 kts | 75° |
| 2026-05-08 04:39 | 37.73712 | -96.72953 | 38956 ft | 574 kts | 75° |
| 2026-05-08 04:40 | 37.75407 | -96.64845 | 38953 ft | 575 kts | 76° |
| 2026-05-08 04:40 | 37.77446 | -96.55049 | 38960 ft | 576 kts | 76° |
| 2026-05-08 04:41 | 37.79483 | -96.45223 | 38946 ft | 576 kts | 76° |
| 2026-05-08 04:41 | 37.81497 | -96.35463 | 38948 ft | 577 kts | 76° |
| 2026-05-08 04:42 | 37.83518 | -96.25625 | 38951 ft | 578 kts | 76° |
| 2026-05-08 04:42 | 37.85536 | -96.15754 | 38950 ft | 579 kts | 76° |
| 2026-05-08 04:43 | 37.87543 | -96.05887 | 38951 ft | 579 kts | 76° |
| 2026-05-08 04:43 | 37.89548 | -95.95992 | 38956 ft | 580 kts | 76° |
| 2026-05-08 04:44 | 37.91532 | -95.86153 | 38951 ft | 581 kts | 76° |
| 2026-05-08 04:44 | 37.93527 | -95.76210 | 38960 ft | 582 kts | 76° |
| 2026-05-08 04:45 | 37.95511 | -95.66273 | 38963 ft | 582 kts | 76° |
| 2026-05-08 04:45 | 37.97492 | -95.56308 | 38963 ft | 583 kts | 76° |
| 2026-05-08 04:46 | 37.99467 | -95.46322 | 38962 ft | 584 kts | 76° |
| 2026-05-08 04:46 | 38.01434 | -95.36333 | 38957 ft | 584 kts | 76° |
| 2026-05-08 04:47 | 38.03390 | -95.26351 | 38958 ft | 585 kts | 76° |
| 2026-05-08 04:47 | 38.05347 | -95.16313 | 38963 ft | 586 kts | 77° |
| 2026-05-08 04:48 | 38.07303 | -95.06225 | 38963 ft | 587 kts | 77° |
| 2026-05-08 04:48 | 38.09236 | -94.96216 | 38964 ft | 588 kts | 77° |
| 2026-05-08 04:49 | 38.11179 | -94.86102 | 38969 ft | 589 kts | 77° |